sensor_id;sensor_type;location;lat;lon;timestamp;pressure;altitude;pressure_sealevel;temperature;humidity
7474;BME280;3778;42.572;23.426;2022-12-29T00:01:24;59232.47;;;-146.70;78.50
7474;BME280;3778;42.572;23.426;2022-12-29T00:03:50;59162.25;;;-146.70;78.38
7474;BME280;3778;42.572;23.426;2022-12-29T00:06:17;59182.91;;;-146.70;78.48
7474;BME280;3778;42.572;23.426;2022-12-29T00:08:44;59182.91;;;-146.70;78.81
7474;BME280;3778;42.572;23.426;2022-12-29T00:11:12;59199.44;;;-146.70;78.94
7474;BME280;3778;42.572;23.426;2022-12-29T00:13:40;59197.38;;;-146.70;78.81
7474;BME280;3778;42.572;23.426;2022-12-29T00:16:25;59207.69;;;-146.70;78.94
7474;BME280;3778;42.572;23.426;2022-12-29T00:18:51;59189.09;;;-146.70;78.94
7474;BME280;3778;42.572;23.426;2022-12-29T00:21:20;59224.22;;;-146.70;78.91
7474;BME280;3778;42.572;23.426;2022-12-29T00:24:05;59182.91;;;-146.70;79.10
7474;BME280;3778;42.572;23.426;2022-12-29T00:26:54;59211.81;;;-146.70;79.03
7474;BME280;3778;42.572;23.426;2022-12-29T00:29:41;59199.44;;;-146.70;78.62
7474;BME280;3778;42.572;23.426;2022-12-29T00:32:25;59240.75;;;-146.70;78.58
7474;BME280;3778;42.572;23.426;2022-12-29T00:35:13;59211.81;;;-146.70;78.49
7474;BME280;3778;42.572;23.426;2022-12-29T00:37:46;59195.31;;;-146.70;78.96
7474;BME280;3778;42.572;23.426;2022-12-29T00:40:42;59201.50;;;-146.70;78.97
7474;BME280;3778;42.572;23.426;2022-12-29T00:43:27;59193.25;;;-146.70;78.68
7474;BME280;3778;42.572;23.426;2022-12-29T00:46:12;59172.59;;;-146.70;79.57
7474;BME280;3778;42.572;23.426;2022-12-29T00:48:39;59178.78;;;-146.70;79.63
7474;BME280;3778;42.572;23.426;2022-12-29T00:51:23;59191.16;;;-146.70;79.89
7474;BME280;3778;42.572;23.426;2022-12-29T00:53:50;59224.22;;;-146.70;80.08
7474;BME280;3778;42.572;23.426;2022-12-29T00:56:16;59240.75;;;-146.70;79.54
7474;BME280;3778;42.572;23.426;2022-12-29T00:58:43;59187.03;;;-146.70;79.65
7474;BME280;3778;42.572;23.426;2022-12-29T01:01:10;59215.97;;;-146.70;79.55
7474;BME280;3778;42.572;23.426;2022-12-29T01:03:38;59187.03;;;-146.70;79.50
7474;BME280;3778;42.572;23.426;2022-12-29T01:06:07;59195.31;;;-146.70;79.70
7474;BME280;3778;42.572;23.426;2022-12-29T01:08:34;59224.22;;;-146.70;79.57
7474;BME280;3778;42.572;23.426;2022-12-29T01:11:03;59215.97;;;-146.70;79.52
7474;BME280;3778;42.572;23.426;2022-12-29T01:13:29;59191.16;;;-146.70;80.20
7474;BME280;3778;42.572;23.426;2022-12-29T01:15:56;59187.03;;;-146.70;79.70
7474;BME280;3778;42.572;23.426;2022-12-29T01:18:24;59205.63;;;-146.70;79.64
7474;BME280;3778;42.572;23.426;2022-12-29T01:20:58;59170.50;;;-146.70;80.13
7474;BME280;3778;42.572;23.426;2022-12-29T01:23:25;59203.56;;;-146.70;80.36
7474;BME280;3778;42.572;23.426;2022-12-29T01:25:51;59180.84;;;-146.70;80.84
7474;BME280;3778;42.572;23.426;2022-12-29T01:28:18;59242.81;;;-146.70;80.94
7474;BME280;3778;42.572;23.426;2022-12-29T01:30:45;59195.31;;;-146.70;80.96
7474;BME280;3778;42.572;23.426;2022-12-29T01:33:11;59199.44;;;-146.70;81.20
7474;BME280;3778;42.572;23.426;2022-12-29T01:35:38;59187.03;;;-146.70;81.28
7474;BME280;3778;42.572;23.426;2022-12-29T01:38:06;59205.63;;;-146.70;80.89
7474;BME280;3778;42.572;23.426;2022-12-29T01:40:33;59164.31;;;-146.70;80.81
7474;BME280;3778;42.572;23.426;2022-12-29T01:43:00;59195.31;;;-146.70;80.87
7474;BME280;3778;42.572;23.426;2022-12-29T01:45:26;59158.13;;;-146.70;80.94
7474;BME280;3778;42.572;23.426;2022-12-29T01:47:57;59191.16;;;-146.70;81.10
7474;BME280;3778;42.572;23.426;2022-12-29T01:50:26;59182.91;;;-146.70;80.84
7474;BME280;3778;42.572;23.426;2022-12-29T01:52:57;59187.03;;;-146.70;80.53
7474;BME280;3778;42.572;23.426;2022-12-29T01:55:29;59162.25;;;-146.70;80.36
7474;BME280;3778;42.572;23.426;2022-12-29T01:58:01;59162.25;;;-146.70;80.52
7474;BME280;3778;42.572;23.426;2022-12-29T02:00:29;59215.97;;;-146.70;80.93
7474;BME280;3778;42.572;23.426;2022-12-29T02:02:56;59174.66;;;-146.70;81.89
7474;BME280;3778;42.572;23.426;2022-12-29T02:05:25;59176.72;;;-146.70;81.97
7474;BME280;3778;42.572;23.426;2022-12-29T02:07:53;59201.50;;;-146.70;81.91
7474;BME280;3778;42.572;23.426;2022-12-29T02:10:23;59168.44;;;-146.70;81.73
7474;BME280;3778;42.572;23.426;2022-12-29T02:12:52;59201.50;;;-146.70;81.70
7474;BME280;3778;42.572;23.426;2022-12-29T02:15:22;59203.56;;;-146.70;81.88
7474;BME280;3778;42.572;23.426;2022-12-29T02:18:00;59232.47;;;-146.70;82.19
7474;BME280;3778;42.572;23.426;2022-12-29T02:20:47;59189.09;;;-146.70;82.00
7474;BME280;3778;42.572;23.426;2022-12-29T02:23:44;59203.56;;;-146.70;81.77
7474;BME280;3778;42.572;23.426;2022-12-29T02:26:51;59182.91;;;-146.70;81.62
7474;BME280;3778;42.572;23.426;2022-12-29T02:32:18;59166.38;;;-146.70;81.94
7474;BME280;3778;42.572;23.426;2022-12-29T02:34:56;59184.97;;;-146.70;81.82
7474;BME280;3778;42.572;23.426;2022-12-29T02:37:30;59189.09;;;-146.70;81.57
7474;BME280;3778;42.572;23.426;2022-12-29T02:40:06;59189.09;;;-146.70;81.92
7474;BME280;3778;42.572;23.426;2022-12-29T02:42:44;59232.47;;;-146.70;81.56
7474;BME280;3778;42.572;23.426;2022-12-29T02:45:19;59172.59;;;-146.70;81.51
7474;BME280;3778;42.572;23.426;2022-12-29T02:47:50;59195.31;;;-146.70;81.69
7474;BME280;3778;42.572;23.426;2022-12-29T02:50:23;59201.50;;;-146.70;81.68
7474;BME280;3778;42.572;23.426;2022-12-29T02:52:56;59189.09;;;-146.70;82.01
7474;BME280;3778;42.572;23.426;2022-12-29T02:55:24;59176.72;;;-146.70;82.31
7474;BME280;3778;42.572;23.426;2022-12-29T02:58:12;59203.56;;;-146.70;82.24
7474;BME280;3778;42.572;23.426;2022-12-29T03:00:47;59197.38;;;-146.70;82.29
7474;BME280;3778;42.572;23.426;2022-12-29T03:03:25;59232.47;;;-146.70;82.35
7474;BME280;3778;42.572;23.426;2022-12-29T03:06:03;59240.75;;;-146.70;82.64
7474;BME280;3778;42.572;23.426;2022-12-29T03:08:41;59151.94;;;-146.70;82.92
7474;BME280;3778;42.572;23.426;2022-12-29T03:11:12;59218.03;;;-146.70;82.56
7474;BME280;3778;42.572;23.426;2022-12-29T03:13:56;59195.31;;;-146.70;82.51
7474;BME280;3778;42.572;23.426;2022-12-29T03:16:45;59184.97;;;-146.70;82.73
7474;BME280;3778;42.572;23.426;2022-12-29T03:19:15;59205.63;;;-146.70;82.99
7474;BME280;3778;42.572;23.426;2022-12-29T03:21:48;59203.56;;;-146.70;82.92
7474;BME280;3778;42.572;23.426;2022-12-29T03:24:37;59191.16;;;-146.70;82.16
7474;BME280;3778;42.572;23.426;2022-12-29T03:27:06;59213.91;;;-146.70;82.29
7474;BME280;3778;42.572;23.426;2022-12-29T03:29:37;59220.09;;;-146.70;82.68
7474;BME280;3778;42.572;23.426;2022-12-29T03:32:07;59199.44;;;-146.70;82.44
7474;BME280;3778;42.572;23.426;2022-12-29T03:34:36;59220.09;;;-146.70;82.41
7474;BME280;3778;42.572;23.426;2022-12-29T03:37:08;59178.78;;;-146.70;82.68
7474;BME280;3778;42.572;23.426;2022-12-29T03:39:37;59220.09;;;-146.70;82.98
7474;BME280;3778;42.572;23.426;2022-12-29T03:42:06;59242.81;;;-146.70;82.97
7474;BME280;3778;42.572;23.426;2022-12-29T03:44:38;59189.09;;;-146.70;82.71
7474;BME280;3778;42.572;23.426;2022-12-29T03:47:06;59182.91;;;-146.70;82.58
7474;BME280;3778;42.572;23.426;2022-12-29T03:49:33;59230.41;;;-146.70;82.24
7474;BME280;3778;42.572;23.426;2022-12-29T03:52:02;59195.31;;;-146.70;82.18
7474;BME280;3778;42.572;23.426;2022-12-29T03:54:29;59249.00;;;-146.70;82.08
7474;BME280;3778;42.572;23.426;2022-12-29T03:56:56;59187.03;;;-146.70;82.55
7474;BME280;3778;42.572;23.426;2022-12-29T03:59:23;59209.75;;;-146.70;82.55
7474;BME280;3778;42.572;23.426;2022-12-29T04:01:49;59224.22;;;-146.70;82.33
7474;BME280;3778;42.572;23.426;2022-12-29T04:04:16;59176.72;;;-146.70;81.96
7474;BME280;3778;42.572;23.426;2022-12-29T04:06:43;59228.34;;;-146.70;82.16
7474;BME280;3778;42.572;23.426;2022-12-29T04:09:11;59195.31;;;-146.70;82.16
7474;BME280;3778;42.572;23.426;2022-12-29T04:11:38;59174.66;;;-146.70;82.22
7474;BME280;3778;42.572;23.426;2022-12-29T04:14:04;59238.69;;;-146.70;82.51
7474;BME280;3778;42.572;23.426;2022-12-29T04:16:31;59205.63;;;-146.70;82.43
7474;BME280;3778;42.572;23.426;2022-12-29T04:19:00;59189.09;;;-146.70;82.66
7474;BME280;3778;42.572;23.426;2022-12-29T04:21:27;59195.31;;;-146.70;82.40
7474;BME280;3778;42.572;23.426;2022-12-29T04:23:53;59193.25;;;-146.70;81.60
7474;BME280;3778;42.572;23.426;2022-12-29T04:26:21;59182.91;;;-146.70;81.91
7474;BME280;3778;42.572;23.426;2022-12-29T04:28:48;59215.97;;;-146.70;82.36
7474;BME280;3778;42.572;23.426;2022-12-29T04:31:14;59141.59;;;-146.70;82.25
7474;BME280;3778;42.572;23.426;2022-12-29T04:33:41;59205.63;;;-146.70;82.59
7474;BME280;3778;42.572;23.426;2022-12-29T04:36:08;59234.56;;;-146.70;82.70
7474;BME280;3778;42.572;23.426;2022-12-29T04:38:35;59195.31;;;-146.70;82.63
7474;BME280;3778;42.572;23.426;2022-12-29T04:41:02;59224.22;;;-146.70;82.56
7474;BME280;3778;42.572;23.426;2022-12-29T04:43:30;59228.34;;;-146.70;82.20
7474;BME280;3778;42.572;23.426;2022-12-29T04:45:57;59184.97;;;-146.70;82.13
7474;BME280;3778;42.572;23.426;2022-12-29T04:48:24;59182.91;;;-146.70;82.16
7474;BME280;3778;42.572;23.426;2022-12-29T04:50:50;59187.03;;;-146.70;82.23
7474;BME280;3778;42.572;23.426;2022-12-29T04:53:18;59201.50;;;-146.70;82.06
7474;BME280;3778;42.572;23.426;2022-12-29T04:55:48;59193.25;;;-146.70;82.18
7474;BME280;3778;42.572;23.426;2022-12-29T04:58:15;59207.69;;;-146.70;82.26
7474;BME280;3778;42.572;23.426;2022-12-29T05:00:43;59226.28;;;-146.70;82.72
7474;BME280;3778;42.572;23.426;2022-12-29T05:03:10;59220.09;;;-146.70;82.88
7474;BME280;3778;42.572;23.426;2022-12-29T05:05:36;59211.81;;;-146.70;82.93
7474;BME280;3778;42.572;23.426;2022-12-29T05:08:04;59218.03;;;-146.70;82.89
7474;BME280;3778;42.572;23.426;2022-12-29T05:10:30;59215.97;;;-146.70;82.91
7474;BME280;3778;42.572;23.426;2022-12-29T05:12:57;59220.09;;;-146.70;82.93
7474;BME280;3778;42.572;23.426;2022-12-29T05:15:25;59170.50;;;-146.70;83.02
7474;BME280;3778;42.572;23.426;2022-12-29T05:17:53;59240.75;;;-146.70;82.74
7474;BME280;3778;42.572;23.426;2022-12-29T05:20:19;59195.31;;;-146.70;82.69
7474;BME280;3778;42.572;23.426;2022-12-29T05:22:46;59255.22;;;-146.70;82.76
7474;BME280;3778;42.572;23.426;2022-12-29T05:25:13;59215.97;;;-146.70;82.48
7474;BME280;3778;42.572;23.426;2022-12-29T05:27:39;59209.75;;;-146.70;82.53
7474;BME280;3778;42.572;23.426;2022-12-29T05:30:07;59203.56;;;-146.70;82.54
7474;BME280;3778;42.572;23.426;2022-12-29T05:32:34;59201.50;;;-146.70;82.50
7474;BME280;3778;42.572;23.426;2022-12-29T05:35:02;59195.31;;;-146.70;82.45
7474;BME280;3778;42.572;23.426;2022-12-29T05:37:29;59251.06;;;-146.70;82.53
7474;BME280;3778;42.572;23.426;2022-12-29T05:39:56;59182.91;;;-146.70;82.69
7474;BME280;3778;42.572;23.426;2022-12-29T05:42:24;59215.97;;;-146.70;83.15
7474;BME280;3778;42.572;23.426;2022-12-29T05:44:51;59209.75;;;-146.70;83.29
7474;BME280;3778;42.572;23.426;2022-12-29T05:47:19;59234.56;;;-146.70;83.25
7474;BME280;3778;42.572;23.426;2022-12-29T05:49:45;59207.69;;;-146.70;83.17
7474;BME280;3778;42.572;23.426;2022-12-29T05:52:14;59213.91;;;-146.70;83.30
7474;BME280;3778;42.572;23.426;2022-12-29T05:54:40;59197.38;;;-146.70;83.58
7474;BME280;3778;42.572;23.426;2022-12-29T05:57:07;59203.56;;;-146.70;83.80
7474;BME280;3778;42.572;23.426;2022-12-29T05:59:35;59184.97;;;-146.70;83.60
7474;BME280;3778;42.572;23.426;2022-12-29T06:02:01;59189.09;;;-146.70;83.47
7474;BME280;3778;42.572;23.426;2022-12-29T06:04:28;59195.31;;;-146.70;83.67
7474;BME280;3778;42.572;23.426;2022-12-29T06:06:55;59236.63;;;-146.70;83.79
7474;BME280;3778;42.572;23.426;2022-12-29T06:09:23;59184.97;;;-146.70;84.03
7474;BME280;3778;42.572;23.426;2022-12-29T06:11:49;59141.59;;;-146.70;83.88
7474;BME280;3778;42.572;23.426;2022-12-29T06:14:16;59246.94;;;-146.70;83.91
7474;BME280;3778;42.572;23.426;2022-12-29T06:16:43;59220.09;;;-146.70;84.03
7474;BME280;3778;42.572;23.426;2022-12-29T06:19:10;59203.56;;;-146.70;84.13
7474;BME280;3778;42.572;23.426;2022-12-29T06:21:36;59193.25;;;-146.70;84.11
7474;BME280;3778;42.572;23.426;2022-12-29T06:24:04;59187.03;;;-146.70;84.33
7474;BME280;3778;42.572;23.426;2022-12-29T06:26:32;59201.50;;;-146.70;84.24
7474;BME280;3778;42.572;23.426;2022-12-29T06:28:59;59211.81;;;-146.70;84.00
7474;BME280;3778;42.572;23.426;2022-12-29T06:31:25;59211.81;;;-146.70;83.98
7474;BME280;3778;42.572;23.426;2022-12-29T06:33:52;59224.22;;;-146.70;83.97
7474;BME280;3778;42.572;23.426;2022-12-29T06:36:19;59195.31;;;-146.70;83.81
7474;BME280;3778;42.572;23.426;2022-12-29T06:38:45;59205.63;;;-146.70;83.52
7474;BME280;3778;42.572;23.426;2022-12-29T06:41:12;59242.81;;;-146.70;83.60
7474;BME280;3778;42.572;23.426;2022-12-29T06:43:40;59205.63;;;-146.70;83.84
7474;BME280;3778;42.572;23.426;2022-12-29T06:46:07;59199.44;;;-146.70;84.03
7474;BME280;3778;42.572;23.426;2022-12-29T06:48:33;59232.47;;;-146.70;83.83
7474;BME280;3778;42.572;23.426;2022-12-29T06:51:00;59207.69;;;-146.70;83.63
7474;BME280;3778;42.572;23.426;2022-12-29T06:53:27;59234.56;;;-146.70;83.35
7474;BME280;3778;42.572;23.426;2022-12-29T06:55:54;59203.56;;;-146.70;83.43
7474;BME280;3778;42.572;23.426;2022-12-29T06:58:21;59209.75;;;-146.70;83.30
7474;BME280;3778;42.572;23.426;2022-12-29T07:00:50;59197.38;;;-146.70;83.07
7474;BME280;3778;42.572;23.426;2022-12-29T07:03:17;59189.09;;;-146.70;83.09
7474;BME280;3778;42.572;23.426;2022-12-29T07:05:43;59218.03;;;-146.70;82.98
7474;BME280;3778;42.572;23.426;2022-12-29T07:08:10;59201.50;;;-146.70;82.95
7474;BME280;3778;42.572;23.426;2022-12-29T07:10:40;59236.63;;;-146.70;82.56
7474;BME280;3778;42.572;23.426;2022-12-29T07:13:07;59199.44;;;-146.70;82.46
7474;BME280;3778;42.572;23.426;2022-12-29T07:15:35;59211.81;;;-146.70;82.59
7474;BME280;3778;42.572;23.426;2022-12-29T07:18:04;59211.81;;;-146.70;82.81
7474;BME280;3778;42.572;23.426;2022-12-29T07:20:31;59236.63;;;-146.70;82.87
7474;BME280;3778;42.572;23.426;2022-12-29T07:22:58;59220.09;;;-146.70;83.22
7474;BME280;3778;42.572;23.426;2022-12-29T07:25:24;59201.50;;;-146.70;82.97
7474;BME280;3778;42.572;23.426;2022-12-29T07:27:51;59230.41;;;-146.70;82.38
7474;BME280;3778;42.572;23.426;2022-12-29T07:30:18;59257.28;;;-146.70;82.72
7474;BME280;3778;42.572;23.426;2022-12-29T07:32:44;59199.44;;;-146.70;82.47
7474;BME280;3778;42.572;23.426;2022-12-29T07:35:12;59218.03;;;-146.70;81.79
7474;BME280;3778;42.572;23.426;2022-12-29T07:37:39;59238.69;;;-146.70;81.59
7474;BME280;3778;42.572;23.426;2022-12-29T07:40:08;59193.25;;;-146.70;81.78
7474;BME280;3778;42.572;23.426;2022-12-29T07:42:35;59234.56;;;-146.70;82.04
7474;BME280;3778;42.572;23.426;2022-12-29T07:45:02;59211.81;;;-146.70;82.03
7474;BME280;3778;42.572;23.426;2022-12-29T07:47:29;59209.75;;;-146.70;81.31
7474;BME280;3778;42.572;23.426;2022-12-29T07:49:56;59199.44;;;-146.70;81.15
7474;BME280;3778;42.572;23.426;2022-12-29T07:52:24;59218.03;;;-146.70;81.12
7474;BME280;3778;42.572;23.426;2022-12-29T07:54:50;59218.03;;;-146.70;81.26
7474;BME280;3778;42.572;23.426;2022-12-29T07:57:17;59191.16;;;-146.70;81.13
7474;BME280;3778;42.572;23.426;2022-12-29T07:59:44;59199.44;;;-146.70;81.44
7474;BME280;3778;42.572;23.426;2022-12-29T08:02:11;59215.97;;;-146.70;81.32
7474;BME280;3778;42.572;23.426;2022-12-29T08:04:37;59226.28;;;-146.70;80.97
7474;BME280;3778;42.572;23.426;2022-12-29T08:07:04;59213.91;;;-146.70;81.53
7474;BME280;3778;42.572;23.426;2022-12-29T08:09:32;59236.63;;;-146.70;81.93
7474;BME280;3778;42.572;23.426;2022-12-29T08:11:59;59211.81;;;-146.70;82.05
7474;BME280;3778;42.572;23.426;2022-12-29T08:14:25;59232.47;;;-146.70;81.85
7474;BME280;3778;42.572;23.426;2022-12-29T08:16:52;59224.22;;;-146.70;82.10
7474;BME280;3778;42.572;23.426;2022-12-29T08:19:19;59195.31;;;-146.70;81.91
7474;BME280;3778;42.572;23.426;2022-12-29T08:21:46;59249.00;;;-146.70;81.59
7474;BME280;3778;42.572;23.426;2022-12-29T08:24:12;59226.28;;;-146.70;81.41
7474;BME280;3778;42.572;23.426;2022-12-29T08:26:40;59232.47;;;-146.70;81.02
7474;BME280;3778;42.572;23.426;2022-12-29T08:29:07;59209.75;;;-146.70;81.11
7474;BME280;3778;42.572;23.426;2022-12-29T08:31:34;59246.94;;;-146.70;80.94
7474;BME280;3778;42.572;23.426;2022-12-29T08:34:01;59201.50;;;-146.70;80.99
7474;BME280;3778;42.572;23.426;2022-12-29T08:36:28;59195.31;;;-146.70;80.87
7474;BME280;3778;42.572;23.426;2022-12-29T08:38:55;59207.69;;;-146.70;80.64
7474;BME280;3778;42.572;23.426;2022-12-29T08:41:22;59220.09;;;-146.70;80.20
7474;BME280;3778;42.572;23.426;2022-12-29T08:43:50;59205.63;;;-146.70;80.30
7474;BME280;3778;42.572;23.426;2022-12-29T08:46:17;59228.34;;;-146.70;80.64
7474;BME280;3778;42.572;23.426;2022-12-29T08:48:44;59267.59;;;-146.70;79.35
7474;BME280;3778;42.572;23.426;2022-12-29T08:51:11;59213.91;;;-146.70;79.39
7474;BME280;3778;42.572;23.426;2022-12-29T08:53:38;59193.25;;;-146.70;78.68
7474;BME280;3778;42.572;23.426;2022-12-29T08:56:06;59222.16;;;-146.70;78.87
7474;BME280;3778;42.572;23.426;2022-12-29T08:58:33;59261.41;;;-146.70;78.91
7474;BME280;3778;42.572;23.426;2022-12-29T09:01:01;59218.03;;;-146.70;77.83
7474;BME280;3778;42.572;23.426;2022-12-29T09:03:28;59211.81;;;-146.70;77.29
7474;BME280;3778;42.572;23.426;2022-12-29T09:05:55;59246.94;;;-146.70;77.07
7474;BME280;3778;42.572;23.426;2022-12-29T09:08:22;59232.47;;;-146.70;77.41
7474;BME280;3778;42.572;23.426;2022-12-29T09:10:49;59197.38;;;-146.70;76.73
7474;BME280;3778;42.572;23.426;2022-12-29T09:13:17;59193.25;;;-146.70;77.38
7474;BME280;3778;42.572;23.426;2022-12-29T09:15:44;59203.56;;;-146.70;77.59
7474;BME280;3778;42.572;23.426;2022-12-29T09:18:12;59207.69;;;-146.70;76.96
7474;BME280;3778;42.572;23.426;2022-12-29T09:20:39;59218.03;;;-146.70;77.18
7474;BME280;3778;42.572;23.426;2022-12-29T09:23:05;59228.34;;;-146.70;77.08
7474;BME280;3778;42.572;23.426;2022-12-29T09:25:32;59249.00;;;-146.70;76.76
7474;BME280;3778;42.572;23.426;2022-12-29T09:27:59;59226.28;;;-146.70;76.91
7474;BME280;3778;42.572;23.426;2022-12-29T09:30:29;59234.56;;;-146.70;76.37
7474;BME280;3778;42.572;23.426;2022-12-29T09:32:56;59244.88;;;-146.70;75.40
7474;BME280;3778;42.572;23.426;2022-12-29T09:35:24;59211.81;;;-146.70;75.56
7474;BME280;3778;42.572;23.426;2022-12-29T09:37:50;59246.94;;;-146.70;75.46
7474;BME280;3778;42.572;23.426;2022-12-29T09:40:24;59224.22;;;-146.70;75.12
7474;BME280;3778;42.572;23.426;2022-12-29T09:43:02;59238.69;;;-146.70;74.23
7474;BME280;3778;42.572;23.426;2022-12-29T09:45:34;59259.34;;;-146.70;73.40
7474;BME280;3778;42.572;23.426;2022-12-29T09:48:04;59236.63;;;-146.70;73.41
7474;BME280;3778;42.572;23.426;2022-12-29T09:50:37;59240.75;;;-146.70;73.21
7474;BME280;3778;42.572;23.426;2022-12-29T09:53:09;59209.75;;;-146.70;72.43
7474;BME280;3778;42.572;23.426;2022-12-29T09:55:43;59261.41;;;-146.70;71.85
7474;BME280;3778;42.572;23.426;2022-12-29T09:58:14;59236.63;;;-146.70;71.34
7474;BME280;3778;42.572;23.426;2022-12-29T10:00:50;59220.09;;;-146.70;70.75
7474;BME280;3778;42.572;23.426;2022-12-29T10:03:20;59244.88;;;-146.70;70.26
7474;BME280;3778;42.572;23.426;2022-12-29T10:05:52;59209.75;;;-146.70;69.94
7474;BME280;3778;42.572;23.426;2022-12-29T10:08:28;59240.75;;;-146.70;70.04
7474;BME280;3778;42.572;23.426;2022-12-29T10:10:59;59220.09;;;-146.70;69.34
7474;BME280;3778;42.572;23.426;2022-12-29T10:13:39;59288.25;;;-146.70;69.26
7474;BME280;3778;42.572;23.426;2022-12-29T10:16:11;59244.88;;;-146.70;68.65
7474;BME280;3778;42.572;23.426;2022-12-29T10:19:11;59228.34;;;-146.70;67.46
7474;BME280;3778;42.572;23.426;2022-12-29T10:21:56;59265.53;;;-146.70;67.00
7474;BME280;3778;42.572;23.426;2022-12-29T10:24:26;59255.22;;;-146.70;66.33
7474;BME280;3778;42.572;23.426;2022-12-29T10:26:56;59224.22;;;-146.70;65.74
7474;BME280;3778;42.572;23.426;2022-12-29T10:29:28;59273.78;;;-146.70;65.43
7474;BME280;3778;42.572;23.426;2022-12-29T10:32:00;59286.19;;;-146.70;64.02
7474;BME280;3778;42.572;23.426;2022-12-29T10:34:30;59236.63;;;-146.70;64.48
7474;BME280;3778;42.572;23.426;2022-12-29T10:37:02;59228.34;;;-146.70;63.75
7474;BME280;3778;42.572;23.426;2022-12-29T10:39:33;59259.34;;;-146.70;63.56
7474;BME280;3778;42.572;23.426;2022-12-29T10:42:09;59263.47;;;-146.70;63.26
7474;BME280;3778;42.572;23.426;2022-12-29T10:44:37;59290.31;;;-146.70;63.48
7474;BME280;3778;42.572;23.426;2022-12-29T10:47:07;59257.28;;;-146.70;63.75
7474;BME280;3778;42.572;23.426;2022-12-29T10:49:40;59251.06;;;-146.70;62.88
7474;BME280;3778;42.572;23.426;2022-12-29T10:52:10;59271.72;;;-146.70;62.41
7474;BME280;3778;42.572;23.426;2022-12-29T10:54:42;59261.41;;;-146.70;61.94
7474;BME280;3778;42.572;23.426;2022-12-29T10:57:15;59249.00;;;-146.70;61.78
7474;BME280;3778;42.572;23.426;2022-12-29T10:59:44;59242.81;;;-146.70;61.16
7474;BME280;3778;42.572;23.426;2022-12-29T11:02:29;59265.53;;;-146.70;61.62
7474;BME280;3778;42.572;23.426;2022-12-29T11:05:03;59302.72;;;-146.70;60.93
7474;BME280;3778;42.572;23.426;2022-12-29T11:07:34;59232.47;;;-146.70;60.85
7474;BME280;3778;42.572;23.426;2022-12-29T11:10:20;59244.88;;;-146.70;60.49
7474;BME280;3778;42.572;23.426;2022-12-29T11:12:56;59304.78;;;-146.70;60.63
7474;BME280;3778;42.572;23.426;2022-12-29T11:15:23;59257.28;;;-146.70;59.46
7474;BME280;3778;42.572;23.426;2022-12-29T11:17:51;59240.75;;;-146.70;59.45
7474;BME280;3778;42.572;23.426;2022-12-29T11:20:31;59267.59;;;-146.70;60.39
7474;BME280;3778;42.572;23.426;2022-12-29T11:23:01;59275.88;;;-146.70;60.49
7474;BME280;3778;42.572;23.426;2022-12-29T11:25:28;59253.13;;;-146.70;60.57
7474;BME280;3778;42.572;23.426;2022-12-29T11:27:57;59261.41;;;-146.70;59.64
7474;BME280;3778;42.572;23.426;2022-12-29T11:30:25;59265.53;;;-146.70;59.20
7474;BME280;3778;42.572;23.426;2022-12-29T11:32:54;59244.88;;;-146.70;58.74
7474;BME280;3778;42.572;23.426;2022-12-29T11:35:33;59215.97;;;-146.70;57.64
7474;BME280;3778;42.572;23.426;2022-12-29T11:38:02;59267.59;;;-146.70;58.03
7474;BME280;3778;42.572;23.426;2022-12-29T11:40:31;59261.41;;;-146.70;57.82
7474;BME280;3778;42.572;23.426;2022-12-29T11:43:01;59277.94;;;-146.70;57.24
7474;BME280;3778;42.572;23.426;2022-12-29T11:45:30;59257.28;;;-146.70;56.89
7474;BME280;3778;42.572;23.426;2022-12-29T11:48:00;59267.59;;;-146.70;55.63
7474;BME280;3778;42.572;23.426;2022-12-29T11:50:34;59236.63;;;-146.70;55.46
7474;BME280;3778;42.572;23.426;2022-12-29T11:53:05;59263.47;;;-146.70;55.98
7474;BME280;3778;42.572;23.426;2022-12-29T11:55:33;59290.31;;;-146.70;54.05
7474;BME280;3778;42.572;23.426;2022-12-29T11:58:02;59251.06;;;-146.70;53.90
7474;BME280;3778;42.572;23.426;2022-12-29T12:00:31;59257.28;;;-146.70;52.78
7474;BME280;3778;42.572;23.426;2022-12-29T12:03:02;59244.88;;;-146.70;51.41
7474;BME280;3778;42.572;23.426;2022-12-29T12:05:43;59228.34;;;-146.70;52.59
7474;BME280;3778;42.572;23.426;2022-12-29T12:08:21;59257.28;;;-146.70;54.25
7474;BME280;3778;42.572;23.426;2022-12-29T12:10:56;59228.34;;;-146.70;54.88
7474;BME280;3778;42.572;23.426;2022-12-29T12:13:29;59249.00;;;-146.70;55.17
7474;BME280;3778;42.572;23.426;2022-12-29T12:15:59;59296.53;;;-146.70;54.44
7474;BME280;3778;42.572;23.426;2022-12-29T12:18:41;59246.94;;;-146.70;54.06
7474;BME280;3778;42.572;23.426;2022-12-29T12:21:13;59222.16;;;-146.70;53.95
7474;BME280;3778;42.572;23.426;2022-12-29T12:23:57;59249.00;;;-146.70;52.77
7474;BME280;3778;42.572;23.426;2022-12-29T12:26:31;59246.94;;;-146.70;53.21
7474;BME280;3778;42.572;23.426;2022-12-29T12:29:04;59265.53;;;-146.70;53.81
7474;BME280;3778;42.572;23.426;2022-12-29T12:31:43;59265.53;;;-146.70;54.93
7474;BME280;3778;42.572;23.426;2022-12-29T12:34:17;59257.28;;;-146.70;54.64
7474;BME280;3778;42.572;23.426;2022-12-29T12:37:08;59251.06;;;-146.70;53.64
7474;BME280;3778;42.572;23.426;2022-12-29T12:39:49;59265.53;;;-146.70;54.99
7474;BME280;3778;42.572;23.426;2022-12-29T12:42:32;59240.75;;;-146.70;55.92
7474;BME280;3778;42.572;23.426;2022-12-29T12:45:24;59277.94;;;-146.70;56.67
7474;BME280;3778;42.572;23.426;2022-12-29T12:48:05;59263.47;;;-146.70;55.70
7474;BME280;3778;42.572;23.426;2022-12-29T12:50:45;59288.25;;;-146.70;54.78
7474;BME280;3778;42.572;23.426;2022-12-29T12:56:26;59286.19;;;-146.70;51.33
7474;BME280;3778;42.572;23.426;2022-12-29T12:58:59;59244.88;;;-146.70;50.84
7474;BME280;3778;42.572;23.426;2022-12-29T13:01:38;59302.72;;;-146.70;49.81
7474;BME280;3778;42.572;23.426;2022-12-29T13:04:37;59261.41;;;-146.70;50.45
7474;BME280;3778;42.572;23.426;2022-12-29T13:07:13;59269.66;;;-146.70;49.49
7474;BME280;3778;42.572;23.426;2022-12-29T13:10:07;59261.41;;;-146.70;49.28
7474;BME280;3778;42.572;23.426;2022-12-29T13:12:49;59263.47;;;-146.70;50.12
7474;BME280;3778;42.572;23.426;2022-12-29T13:15:35;59286.19;;;-146.70;50.34